createdAt,value
2019-04-03T00:02:25.137Z,12.30
2019-04-03T00:04:55.689Z,11.97
2019-04-03T00:07:25.482Z,11.17
2019-04-03T00:09:54.886Z,11.23
2019-04-03T00:12:24.279Z,11.63
2019-04-03T00:14:54.438Z,11.70
2019-04-03T00:17:24.487Z,11.50
2019-04-03T00:19:53.872Z,11.33
2019-04-03T00:22:23.951Z,10.70
2019-04-03T00:24:53.377Z,10.67
2019-04-03T00:27:24.212Z,10.70
2019-04-03T00:29:54.353Z,10.50
2019-04-03T00:32:30.780Z,9.83
2019-04-03T00:35:02.707Z,11.45
2019-04-03T00:37:34.366Z,11.15
2019-04-03T00:40:05.547Z,11.60
2019-04-03T00:42:38.796Z,11.63
2019-04-03T00:45:11.984Z,11.70
2019-04-03T00:47:44.154Z,10.67
2019-04-03T00:50:15.720Z,10.85
2019-04-03T00:52:45.685Z,13.05
2019-04-03T00:55:18.876Z,11.33
2019-04-03T00:57:51.982Z,11.27
2019-04-03T01:00:22.831Z,11.53
2019-04-03T01:02:59.088Z,11.30
2019-04-03T01:05:29.104Z,11.22
2019-04-03T01:07:59.877Z,11.30
2019-04-03T01:10:33.255Z,11.53
2019-04-03T01:13:03.240Z,11.30
2019-04-03T01:15:32.984Z,11.80
2019-04-03T01:18:05.213Z,11.53
2019-04-03T01:20:39.795Z,11.33
2019-04-03T01:23:10.327Z,10.68
2019-04-03T01:25:43.385Z,10.47
2019-04-03T01:28:13.260Z,10.70
2019-04-03T01:30:44.226Z,10.80
2019-04-03T01:33:16.440Z,10.90
2019-04-03T01:35:49.957Z,11.30
2019-04-03T01:38:19.926Z,10.50
2019-04-03T01:40:51.001Z,10.53
2019-04-03T01:43:22.848Z,10.67
2019-04-03T01:45:58.575Z,10.30
2019-04-03T01:48:28.451Z,10.10
2019-04-03T01:50:59.596Z,10.33
2019-04-03T01:53:32.171Z,11.20
2019-04-03T01:56:00.608Z,12.40
2019-04-03T01:58:30.010Z,14.67
2019-04-03T02:01:04.510Z,13.33
2019-04-03T02:03:33.921Z,13.28
2019-04-03T02:06:03.670Z,13.70
2019-04-03T02:08:34.016Z,11.53
2019-04-03T02:11:04.068Z,10.63
2019-04-03T02:13:35.884Z,12.27
2019-04-03T02:16:06.481Z,12.67
2019-04-03T02:18:35.957Z,12.00
2019-04-03T02:21:09.193Z,11.90
2019-04-03T02:23:38.649Z,11.80
2019-04-03T02:26:10.977Z,12.30
2019-04-03T02:28:41.630Z,12.13
2019-04-03T02:31:18.301Z,12.87
2019-04-03T02:33:45.638Z,12.50
2019-04-03T02:36:18.222Z,11.90
2019-04-03T02:38:49.102Z,13.10
2019-04-03T02:41:21.031Z,13.43
2019-04-03T02:43:51.902Z,12.77
2019-04-03T02:46:22.616Z,13.62
2019-04-03T02:48:53.443Z,14.07
2019-04-03T02:51:40.640Z,12.50
2019-04-03T02:54:09.534Z,12.77
2019-04-03T02:56:39.398Z,12.40
2019-04-03T02:59:08.941Z,12.90
2019-04-03T03:01:40.410Z,13.20
2019-04-03T03:04:12.781Z,12.80
2019-04-03T03:06:44.802Z,13.18
2019-04-03T03:09:18.591Z,13.40
2019-04-03T03:11:49.342Z,12.57
2019-04-03T03:14:24.683Z,12.90
2019-04-03T03:16:54.546Z,14.47
2019-04-03T03:19:31.753Z,13.00
2019-04-03T03:22:02.398Z,12.93
2019-04-03T03:24:34.106Z,13.77
2019-04-03T03:27:04.198Z,13.00
2019-04-03T03:29:34.602Z,13.87
2019-04-03T03:32:15.762Z,12.27
2019-04-03T03:34:51.933Z,13.72
2019-04-03T03:37:12.199Z,14.47
2019-04-03T03:39:42.986Z,13.63
2019-04-03T03:42:12.862Z,14.27
2019-04-03T03:44:46.049Z,14.90
2019-04-03T03:47:19.492Z,15.58
2019-04-03T03:49:50.879Z,14.47
2019-04-03T03:52:21.058Z,14.60
2019-04-03T03:54:52.676Z,13.20
2019-04-03T03:57:22.836Z,15.13
2019-04-03T03:59:52.901Z,11.80
2019-04-03T04:02:23.666Z,13.64
2019-04-03T04:04:53.845Z,14.13
2019-04-03T04:07:23.536Z,43.43
2019-04-03T04:09:54.128Z,19.73
2019-04-03T04:12:23.717Z,13.32
2019-04-03T04:14:56.134Z,15.20
2019-04-03T04:17:25.980Z,15.20
2019-04-03T04:19:55.646Z,13.30
2019-04-03T04:22:34.943Z,13.90
2019-04-03T04:25:09.746Z,14.00
2019-04-03T04:27:40.089Z,12.90
2019-04-03T04:30:12.082Z,13.50
2019-04-03T04:32:46.236Z,12.90
2019-04-03T04:35:17.569Z,13.30
2019-04-03T04:37:55.735Z,13.53
2019-04-03T04:40:24.718Z,14.53
2019-04-03T04:42:58.156Z,13.22
2019-04-03T04:45:28.182Z,15.83
2019-04-03T04:48:00.510Z,15.30
2019-04-03T04:50:34.750Z,15.37
2019-04-03T04:53:05.544Z,15.50
2019-04-03T04:55:35.992Z,15.07
2019-04-03T04:58:09.906Z,15.03
2019-04-03T05:00:39.853Z,17.33
2019-04-03T05:03:09.466Z,16.93
2019-04-03T05:05:42.512Z,16.03
2019-04-03T05:08:14.874Z,14.70
2019-04-03T05:10:44.350Z,15.77
2019-04-03T05:13:15.996Z,15.90
2019-04-03T05:15:48.018Z,16.23
2019-04-03T05:18:18.875Z,15.50
2019-04-03T05:20:50.543Z,14.27
2019-04-03T05:23:20.132Z,15.63
2019-04-03T05:25:49.544Z,15.87
2019-04-03T05:28:19.616Z,15.90
2019-04-03T05:30:49.763Z,14.95
2019-04-03T05:33:20.611Z,15.87
2019-04-03T05:35:50.410Z,16.00
2019-04-03T05:38:22.462Z,15.13
2019-04-03T05:40:51.646Z,15.95
2019-04-03T05:43:21.057Z,17.00
2019-04-03T05:45:50.718Z,16.37
2019-04-03T05:48:20.413Z,16.00
2019-04-03T05:50:49.778Z,16.90
2019-04-03T05:53:19.878Z,19.67
2019-04-03T05:55:52.263Z,18.57
2019-04-03T05:58:25.276Z,16.50
2019-04-03T06:01:04.500Z,22.80
2019-04-03T06:03:37.949Z,17.77
2019-04-03T06:06:03.635Z,18.33
2019-04-03T06:08:34.990Z,19.30
2019-04-03T06:11:07.982Z,21.07
2019-04-03T06:13:40.559Z,23.30
2019-04-03T06:16:10.541Z,22.70
2019-04-03T06:18:47.558Z,27.97
2019-04-03T06:21:18.054Z,30.43
2019-04-03T06:23:47.427Z,28.20
2019-04-03T06:26:17.576Z,21.68
2019-04-03T06:28:47.799Z,22.20
2019-04-03T06:31:20.414Z,22.73
2019-04-03T06:33:51.335Z,18.67
2019-04-03T06:36:22.209Z,19.40
2019-04-03T06:38:52.167Z,17.77
2019-04-03T06:41:22.643Z,18.00
2019-04-03T06:43:54.081Z,19.80
2019-04-03T06:46:23.885Z,17.17
2019-04-03T06:48:59.157Z,17.73
2019-04-03T06:51:29.280Z,16.73
2019-04-03T06:53:59.575Z,16.83
2019-04-03T06:56:30.770Z,18.10
2019-04-03T06:59:01.411Z,17.85
2019-04-03T07:01:31.708Z,17.00
2019-04-03T07:04:01.132Z,17.63
2019-04-03T07:06:31.505Z,16.97
2019-04-03T07:09:04.938Z,19.35
2019-04-03T07:11:34.918Z,16.75
2019-04-03T07:14:08.294Z,18.90
2019-04-03T07:16:38.984Z,17.10
2019-04-03T07:19:08.681Z,18.53
2019-04-03T07:21:38.979Z,17.43
2019-04-03T07:24:09.990Z,17.63
2019-04-03T07:26:40.077Z,17.40
2019-04-03T07:29:12.192Z,16.47
2019-04-03T07:31:41.204Z,16.60
2019-04-03T07:34:11.017Z,18.37
2019-04-03T07:36:41.400Z,18.10
2019-04-03T07:39:11.500Z,17.43
2019-04-03T07:41:42.253Z,18.67
2019-04-03T07:44:12.631Z,16.80
2019-04-03T07:46:41.987Z,17.63
2019-04-03T07:49:14.194Z,18.07
2019-04-03T07:51:45.001Z,16.73
2019-04-03T07:54:16.546Z,16.50
2019-04-03T07:56:57.006Z,15.30
2019-04-03T07:59:26.107Z,15.83
2019-04-03T08:02:05.931Z,14.27
2019-04-03T08:04:36.056Z,14.13
2019-04-03T08:07:06.065Z,13.50
2019-04-03T08:09:36.210Z,13.97
2019-04-03T08:12:06.068Z,13.30
2019-04-03T08:14:42.016Z,13.77
2019-04-03T08:17:13.546Z,13.87
2019-04-03T08:19:45.434Z,12.70
2019-04-03T08:22:17.393Z,13.18
2019-04-03T08:24:47.562Z,13.07
2019-04-03T08:27:18.686Z,12.15
2019-04-03T08:29:48.025Z,12.37
2019-04-03T08:32:18.576Z,13.38
2019-04-03T08:34:51.303Z,13.27
2019-04-03T08:37:29.775Z,12.30
2019-04-03T08:39:53.653Z,12.50
2019-04-03T08:42:23.697Z,12.73
2019-04-03T08:44:53.177Z,13.20
2019-04-03T08:47:23.183Z,12.60
2019-04-03T08:49:56.214Z,13.70
2019-04-03T08:52:25.139Z,13.33
2019-04-03T08:54:55.346Z,13.00
2019-04-03T08:57:25.508Z,13.70
2019-04-03T08:59:54.906Z,13.10
2019-04-03T09:02:24.296Z,13.47
2019-04-03T09:04:55.502Z,13.37
2019-04-03T09:07:25.575Z,13.47
2019-04-03T09:09:56.424Z,13.90
2019-04-03T09:12:29.125Z,12.83
2019-04-03T09:14:59.352Z,12.70
2019-04-03T09:17:29.416Z,12.70
2019-04-03T09:19:58.855Z,12.83
2019-04-03T09:22:29.934Z,13.10
2019-04-03T09:25:03.268Z,13.37
2019-04-03T09:27:33.079Z,14.23
2019-04-03T09:30:11.954Z,13.83
2019-04-03T09:32:43.271Z,13.40
2019-04-03T09:35:12.952Z,13.40
2019-04-03T09:37:45.677Z,15.23
2019-04-03T09:40:17.214Z,15.88
2019-04-03T09:42:51.228Z,14.50
2019-04-03T09:45:21.356Z,15.33
2019-04-03T09:47:51.107Z,14.53
2019-04-03T09:50:27.137Z,13.35
2019-04-03T09:52:57.276Z,13.27
2019-04-03T09:55:38.762Z,11.93
2019-04-03T09:58:11.852Z,12.03
2019-04-03T10:00:42.848Z,12.10
2019-04-03T10:03:22.880Z,12.60
2019-04-03T10:05:51.838Z,11.93
2019-04-03T10:08:21.565Z,11.60
2019-04-03T10:10:51.140Z,12.17
2019-04-03T10:13:21.072Z,13.30
2019-04-03T10:15:51.077Z,12.40
2019-04-03T10:18:22.132Z,13.03
2019-04-03T10:20:53.120Z,13.03
2019-04-03T10:23:22.533Z,13.40
2019-04-03T10:25:53.510Z,14.07
2019-04-03T10:28:26.650Z,14.07
2019-04-03T10:30:56.553Z,14.53
2019-04-03T10:33:25.928Z,13.93
2019-04-03T10:35:56.233Z,14.83
2019-04-03T10:38:29.935Z,13.17
2019-04-03T10:40:58.976Z,13.30
2019-04-03T10:43:31.315Z,15.87
2019-04-03T10:46:01.397Z,14.13
2019-04-03T10:48:36.035Z,14.87
2019-04-03T10:51:07.116Z,12.73
2019-04-03T10:53:44.354Z,13.70
2019-04-03T10:56:14.841Z,13.80
2019-04-03T10:58:44.818Z,13.57
2019-04-03T11:01:15.596Z,11.60
2019-04-03T11:03:44.992Z,12.00
2019-04-03T11:06:20.273Z,12.63
2019-04-03T11:08:50.161Z,11.40
2019-04-03T11:11:19.648Z,8.30
2019-04-03T11:13:51.290Z,7.80
2019-04-03T11:16:21.805Z,8.03
2019-04-03T11:19:00.097Z,7.12
2019-04-03T11:21:23.847Z,7.00
2019-04-03T11:24:10.209Z,7.27
2019-04-03T11:26:46.191Z,6.40
2019-04-03T11:29:17.528Z,5.03
2019-04-03T11:31:49.061Z,4.57
2019-04-03T11:34:20.127Z,5.50
2019-04-03T11:36:52.085Z,4.53
2019-04-03T11:39:23.502Z,5.17
2019-04-03T11:41:56.376Z,6.50
2019-04-03T11:44:28.977Z,7.30
2019-04-03T11:47:00.173Z,6.50
2019-04-03T11:49:33.858Z,6.37
2019-04-03T11:52:05.049Z,7.47
2019-04-03T11:54:36.998Z,7.35
2019-04-03T11:57:08.709Z,6.43
2019-04-03T11:59:39.166Z,6.70
2019-04-03T12:02:10.722Z,6.37
2019-04-03T12:04:45.444Z,6.30
2019-04-03T12:07:16.217Z,6.60
2019-04-03T12:09:45.983Z,6.93
2019-04-03T12:12:16.228Z,7.65
2019-04-03T12:14:48.445Z,7.17
2019-04-03T12:17:18.017Z,7.90
2019-04-03T12:19:47.988Z,8.47
2019-04-03T12:22:21.304Z,7.70
2019-04-03T12:24:53.990Z,8.03
2019-04-03T12:27:23.387Z,7.57
2019-04-03T12:29:55.626Z,8.40
2019-04-03T12:32:36.350Z,7.67
2019-04-03T12:34:59.532Z,7.43
2019-04-03T12:37:29.011Z,6.70
2019-04-03T12:40:00.934Z,7.20
2019-04-03T12:42:30.240Z,6.22
2019-04-03T12:45:03.014Z,7.57
2019-04-03T12:47:33.576Z,6.57
2019-04-03T12:50:03.333Z,6.73
2019-04-03T12:52:37.697Z,6.10
2019-04-03T12:55:07.584Z,5.95
2019-04-03T12:57:39.249Z,6.70
2019-04-03T13:00:12.540Z,6.30
2019-04-03T13:02:42.431Z,5.60
2019-04-03T13:05:13.632Z,6.10
2019-04-03T13:07:45.927Z,6.15
2019-04-03T13:10:16.524Z,6.72
2019-04-03T13:12:46.891Z,6.37
2019-04-03T13:15:17.813Z,6.68
2019-04-03T13:17:47.584Z,6.57
2019-04-03T13:20:22.564Z,5.83
2019-04-03T13:22:52.856Z,5.47
2019-04-03T13:25:22.348Z,4.87
2019-04-03T13:27:51.923Z,5.30
2019-04-03T13:30:22.557Z,4.95
2019-04-03T13:32:59.767Z,6.50
2019-04-03T13:35:25.412Z,5.20
2019-04-03T13:37:58.928Z,5.27
2019-04-03T13:40:30.136Z,5.50
2019-04-03T13:43:00.938Z,5.23
2019-04-03T13:45:31.976Z,5.57
2019-04-03T13:48:03.244Z,6.27
2019-04-03T13:50:35.897Z,5.00
2019-04-03T13:53:06.610Z,4.37
2019-04-03T13:55:40.208Z,2.47
2019-04-03T13:58:10.625Z,2.47
2019-04-03T14:00:56.756Z,2.50
2019-04-03T14:03:19.845Z,2.55
2019-04-03T14:05:51.237Z,2.10
2019-04-03T14:08:22.070Z,2.43
2019-04-03T14:10:57.243Z,2.37
2019-04-03T14:13:26.231Z,2.33
2019-04-03T14:15:56.348Z,2.20
2019-04-03T14:18:26.058Z,1.73
2019-04-03T14:20:57.040Z,2.00
2019-04-03T14:23:32.893Z,2.00
2019-04-03T14:26:08.034Z,2.10
2019-04-03T14:28:42.470Z,1.97
2019-04-03T14:31:33.091Z,2.10
2019-04-03T14:33:57.411Z,1.80
2019-04-03T14:36:37.391Z,2.30
2019-04-03T14:39:14.200Z,2.00
2019-04-03T14:41:47.450Z,2.10
2019-04-03T14:44:22.809Z,2.22
2019-04-03T14:47:02.473Z,2.67
2019-04-03T14:49:34.545Z,1.83
2019-04-03T14:52:08.813Z,1.82
2019-04-03T14:54:42.679Z,2.30
2019-04-03T14:57:20.738Z,2.17
2019-04-03T14:59:46.868Z,2.70
2019-04-03T15:02:23.750Z,2.10
2019-04-03T15:04:59.058Z,2.20
2019-04-03T15:07:29.864Z,2.57
2019-04-03T15:10:00.578Z,2.60
2019-04-03T15:16:39.871Z,2.90
2019-04-03T15:24:35.289Z,5.17
2019-04-03T15:27:22.459Z,4.17
2019-04-03T19:14:10.330Z,5.30
2019-04-03T19:16:45.193Z,6.80
2019-04-03T19:19:16.435Z,4.30
2019-04-03T19:21:48.338Z,6.53
2019-04-03T19:24:20.808Z,4.80
2019-04-03T19:26:50.216Z,5.05
2019-04-03T19:29:19.768Z,4.77
2019-04-03T19:31:49.188Z,5.12
2019-04-03T19:34:20.768Z,3.40
2019-04-03T19:36:51.547Z,3.27
2019-04-03T19:39:22.218Z,3.50
2019-04-03T19:41:51.614Z,3.40
2019-04-03T19:44:21.536Z,3.30
2019-04-03T19:46:53.858Z,3.03
2019-04-03T19:49:28.149Z,2.87
2019-04-03T19:51:59.767Z,3.17
2019-04-03T19:54:32.043Z,2.67
2019-04-03T19:57:03.623Z,3.20
2019-04-03T19:59:34.643Z,3.27
2019-04-03T20:02:05.087Z,3.17
2019-04-03T20:04:35.769Z,2.60
2019-04-03T20:07:09.399Z,3.05
2019-04-03T20:09:40.227Z,2.90
2019-04-03T20:12:13.407Z,2.80
2019-04-03T20:14:57.608Z,3.07
2019-04-03T20:17:20.534Z,3.15
2019-04-03T20:19:51.017Z,2.70
2019-04-03T20:22:24.012Z,3.53
2019-04-03T20:25:00.276Z,4.13
2019-04-03T20:27:28.526Z,3.60
2019-04-03T20:30:00.497Z,3.23
2019-04-03T20:32:31.151Z,5.57
2019-04-03T20:35:04.962Z,9.90
2019-04-03T20:37:35.293Z,12.30
2019-04-03T20:40:05.223Z,13.33
2019-04-03T20:42:35.371Z,11.97
2019-04-03T20:45:05.942Z,12.00
2019-04-03T20:47:36.421Z,14.17
2019-04-03T20:50:09.252Z,13.65
2019-04-03T20:52:40.134Z,15.57
2019-04-03T20:55:14.113Z,14.93
2019-04-03T20:57:55.500Z,15.93
2019-04-03T21:00:20.110Z,14.88
2019-04-03T21:02:49.878Z,15.50
2019-04-03T21:05:24.336Z,15.35
2019-04-03T21:07:55.475Z,15.40
2019-04-03T21:10:25.424Z,15.17
2019-04-03T21:12:59.538Z,14.43
2019-04-03T21:15:31.730Z,14.40
2019-04-03T21:18:02.920Z,14.73
2019-04-03T21:20:33.637Z,15.07
2019-04-03T21:23:07.213Z,14.50
2019-04-03T21:25:40.728Z,15.40
2019-04-03T21:28:11.583Z,14.90
2019-04-03T21:30:42.459Z,14.70
2019-04-03T21:33:12.124Z,14.63
2019-04-03T21:35:42.520Z,13.83
2019-04-03T21:38:12.912Z,15.00
2019-04-03T21:40:43.231Z,14.97
2019-04-03T21:43:13.491Z,15.43
2019-04-03T21:45:48.588Z,14.33
2019-04-03T21:48:23.540Z,15.70
2019-04-03T21:50:53.829Z,16.03
2019-04-03T21:53:27.919Z,16.40
2019-04-03T21:56:02.653Z,16.33
2019-04-03T21:58:32.328Z,14.63
2019-04-03T22:01:27.633Z,14.00
2019-04-03T22:03:57.694Z,11.53
2019-04-03T22:06:31.199Z,12.27
2019-04-03T22:09:00.782Z,12.37
2019-04-03T22:11:34.781Z,12.40
2019-04-03T22:14:04.028Z,12.83
2019-04-03T22:16:34.248Z,13.27
2019-04-03T22:19:03.866Z,12.07
2019-04-03T22:21:33.698Z,12.17
2019-04-03T22:24:06.569Z,12.20
2019-04-03T22:26:36.008Z,12.05
2019-04-03T22:29:06.974Z,12.43
2019-04-03T22:31:37.994Z,13.87
2019-04-03T22:34:11.756Z,12.90
2019-04-03T22:36:42.024Z,12.47
2019-04-03T22:39:13.670Z,12.90
2019-04-03T22:41:45.440Z,12.28
2019-04-03T22:44:17.095Z,13.00
2019-04-03T22:46:47.296Z,13.13
2019-04-03T22:49:18.129Z,11.45
2019-04-03T22:51:56.654Z,12.13
2019-04-03T22:54:28.334Z,13.43
2019-04-03T22:56:58.136Z,12.60
2019-04-03T22:59:29.654Z,12.60
2019-04-03T23:02:01.848Z,12.70
2019-04-03T23:04:31.227Z,12.10
2019-04-03T23:07:00.637Z,12.03
2019-04-03T23:09:31.500Z,13.08
2019-04-03T23:12:02.692Z,13.87
2019-04-03T23:14:38.204Z,13.10
2019-04-03T23:17:07.046Z,13.20
2019-04-03T23:19:37.220Z,12.87
2019-04-03T23:22:08.583Z,12.40
2019-04-03T23:24:42.403Z,12.80
2019-04-03T23:27:13.178Z,11.53
2019-04-03T23:29:44.042Z,13.20
2019-04-03T23:32:16.122Z,12.90
2019-04-03T23:34:49.416Z,12.50
2019-04-03T23:37:22.867Z,11.73
2019-04-03T23:39:52.760Z,11.83
2019-04-03T23:42:23.370Z,11.97
2019-04-03T23:44:53.306Z,11.60
2019-04-03T23:47:24.955Z,12.43
2019-04-03T23:49:55.736Z,11.40
2019-04-03T23:52:29.637Z,11.80
2019-04-03T23:54:59.719Z,11.90
2019-04-03T23:57:29.352Z,11.57
2019-04-03T23:59:59.271Z,11.60
